createdAt,value
2022-12-08T00:01:41.940Z,89769.16
2022-12-08T00:04:08.903Z,89772.50
2022-12-08T00:06:37.392Z,89772.22
2022-12-08T00:09:04.397Z,89771.78
2022-12-08T00:11:31.287Z,89779.91
2022-12-08T00:13:58.327Z,89775.28
2022-12-08T00:16:25.303Z,89779.47
2022-12-08T00:18:52.281Z,89784.97
2022-12-08T00:21:19.106Z,89777.13
2022-12-08T00:23:46.036Z,89788.47
2022-12-08T00:26:12.870Z,89794.47
2022-12-08T00:28:39.719Z,89787.44
2022-12-08T00:31:11.503Z,89780.81
2022-12-08T00:33:39.203Z,89788.78
2022-12-08T00:36:10.869Z,89787.84
2022-12-08T00:38:38.598Z,89788.41
2022-12-08T00:41:12.116Z,89772.78
2022-12-08T00:43:39.093Z,89782.94
2022-12-08T00:46:06.199Z,89782.28
2022-12-08T00:48:33.243Z,89789.75
2022-12-08T00:51:00.179Z,89789.50
2022-12-08T00:53:27.070Z,89786.06
2022-12-08T00:55:53.855Z,89787.25
2022-12-08T00:58:20.746Z,89784.84
2022-12-08T01:00:47.799Z,89770.72
2022-12-08T01:03:15.567Z,89774.66
2022-12-08T01:05:42.509Z,89777.81
2022-12-08T01:08:09.545Z,89773.09
2022-12-08T01:10:36.868Z,89769.53
2022-12-08T01:13:04.433Z,89773.72
2022-12-08T01:15:31.445Z,89778.44
2022-12-08T01:17:58.506Z,89779.91
2022-12-08T01:20:25.385Z,89779.13
2022-12-08T01:22:52.189Z,89779.63
2022-12-08T01:25:19.248Z,89771.59
2022-12-08T01:27:46.106Z,89775.97
2022-12-08T01:30:13.442Z,89781.13
2022-12-08T01:32:40.384Z,89787.47
2022-12-08T01:35:07.476Z,89778.91
2022-12-08T01:37:34.426Z,89786.03
2022-12-08T01:40:01.677Z,89773.81
2022-12-08T01:42:29.010Z,89776.06
2022-12-08T01:45:00.522Z,89779.19
2022-12-08T01:47:33.384Z,89781.63
2022-12-08T01:50:00.912Z,89778.25
2022-12-08T01:52:36.865Z,89780.81
2022-12-08T01:55:12.961Z,89774.38
2022-12-08T01:57:47.581Z,89783.91
2022-12-08T02:00:18.399Z,89790.25
2022-12-08T02:03:09.484Z,89793.31
2022-12-08T02:05:40.136Z,89796.72
2022-12-08T02:08:09.403Z,89793.63
2022-12-08T02:10:39.319Z,89792.78
2022-12-08T02:13:09.831Z,89790.31
2022-12-08T02:15:56.329Z,89794.09
2022-12-08T02:18:32.293Z,89787.22
2022-12-08T02:21:26.238Z,89791.63
2022-12-08T02:24:18.135Z,89790.75
2022-12-08T02:27:03.434Z,89807.13
2022-12-08T02:29:45.367Z,89804.03
2022-12-08T02:32:42.482Z,89799.34
2022-12-08T02:35:21.886Z,89813.00
2022-12-08T02:38:15.033Z,89816.41
2022-12-08T02:41:18.149Z,89817.91
2022-12-08T02:43:51.309Z,89817.75
2022-12-08T02:46:58.372Z,89814.47
2022-12-08T02:49:30.209Z,89814.13
2022-12-08T02:52:12.278Z,89812.81
2022-12-08T02:54:47.516Z,89817.66
2022-12-08T02:57:44.434Z,89819.22
2022-12-08T03:00:20.511Z,89816.44
2022-12-08T03:03:06.122Z,89814.00
2022-12-08T03:06:08.807Z,89811.72
2022-12-08T03:09:13.093Z,89820.41
2022-12-08T03:11:52.164Z,89823.81
2022-12-08T03:14:21.936Z,89826.63
2022-12-08T03:16:52.909Z,89822.09
2022-12-08T03:19:27.457Z,89821.28
2022-12-08T03:21:58.091Z,89827.63
2022-12-08T03:24:24.898Z,89829.16
2022-12-08T03:27:05.984Z,89824.47
2022-12-08T03:29:33.328Z,89827.59
2022-12-08T03:32:35.423Z,89823.84
2022-12-08T03:35:08.139Z,89836.63
2022-12-08T03:37:36.741Z,89825.19
2022-12-08T03:40:06.421Z,89831.97
2022-12-08T03:42:33.513Z,89830.63
2022-12-08T03:45:00.340Z,89828.56
2022-12-08T03:47:27.231Z,89822.09
2022-12-08T03:49:54.109Z,89825.47
2022-12-08T03:52:21.006Z,89823.78
2022-12-08T03:54:48.190Z,89829.63
2022-12-08T03:57:15.064Z,89827.97
2022-12-08T03:59:42.024Z,89832.31
2022-12-08T04:02:08.910Z,89825.47
2022-12-08T04:04:35.922Z,89837.38
2022-12-08T04:07:02.868Z,89842.88
2022-12-08T04:09:29.757Z,89829.56
2022-12-08T04:11:56.709Z,89828.66
2022-12-08T04:14:23.582Z,89824.22
2022-12-08T04:16:50.457Z,89822.09
2022-12-08T04:19:17.458Z,89824.28
2022-12-08T04:21:44.298Z,89827.06
2022-12-08T04:24:11.260Z,89832.63
2022-12-08T04:26:38.124Z,89829.59
2022-12-08T04:29:04.977Z,89828.84
2022-12-08T04:31:31.984Z,89831.63
2022-12-08T04:33:59.226Z,89840.16
2022-12-08T04:36:26.123Z,89839.66
2022-12-08T04:38:53.029Z,89845.16
2022-12-08T04:41:19.967Z,89846.72
2022-12-08T04:43:46.898Z,89848.38
2022-12-08T04:46:13.827Z,89860.38
2022-12-08T04:48:41.682Z,89854.69
2022-12-08T04:51:17.813Z,89859.38
2022-12-08T04:53:46.905Z,89853.25
2022-12-08T04:56:16.706Z,89861.56
2022-12-08T04:58:44.304Z,89860.69
2022-12-08T05:01:11.713Z,89862.81
2022-12-08T05:03:38.842Z,89863.88
2022-12-08T05:06:06.079Z,89861.41
2022-12-08T05:08:33.699Z,89870.91
2022-12-08T05:11:09.071Z,89866.00
2022-12-08T05:13:36.030Z,89880.38
2022-12-08T05:16:08.704Z,89879.16
2022-12-08T05:18:36.824Z,89891.22
2022-12-08T05:21:05.341Z,89892.44
2022-12-08T05:23:32.521Z,89897.22
2022-12-08T05:25:59.872Z,89894.13
2022-12-08T05:28:43.487Z,89899.03
2022-12-08T05:31:15.574Z,89901.19
2022-12-08T05:33:43.173Z,89905.81
2022-12-08T05:36:12.883Z,89907.75
2022-12-08T05:38:40.601Z,89904.50
2022-12-08T05:41:08.238Z,89896.78
2022-12-08T05:43:35.778Z,89897.47
2022-12-08T05:46:02.946Z,89897.53
2022-12-08T05:48:29.941Z,89894.75
2022-12-08T05:50:56.816Z,89906.25
2022-12-08T05:53:23.730Z,89911.66
2022-12-08T05:55:50.610Z,89909.59
2022-12-08T05:58:22.437Z,89904.25
2022-12-08T06:00:50.896Z,89913.13
2022-12-08T06:03:19.467Z,89917.75
2022-12-08T06:05:47.602Z,89923.66
2022-12-08T06:08:14.756Z,89918.75
2022-12-08T06:10:43.734Z,89928.13
2022-12-08T06:13:11.278Z,89927.63
2022-12-08T06:15:40.118Z,89933.63
2022-12-08T06:18:08.235Z,89935.88
2022-12-08T06:20:36.525Z,89936.44
2022-12-08T06:23:03.409Z,89940.03
2022-12-08T06:25:30.588Z,89939.38
2022-12-08T06:27:57.545Z,89946.63
2022-12-08T06:30:24.482Z,89953.88
2022-12-08T06:32:51.366Z,89955.66
2022-12-08T06:35:18.298Z,89958.75
2022-12-08T06:37:45.115Z,89961.84
2022-12-08T06:40:12.444Z,89963.00
2022-12-08T06:42:39.401Z,89962.13
2022-12-08T06:45:06.785Z,89970.44
2022-12-08T06:47:33.688Z,89963.13
2022-12-08T06:50:00.852Z,89970.31
2022-12-08T06:52:27.826Z,89973.78
2022-12-08T06:54:54.838Z,89979.25
2022-12-08T06:57:21.858Z,89973.53
2022-12-08T06:59:48.665Z,89976.72
2022-12-08T07:02:15.747Z,89977.59
2022-12-08T07:04:42.575Z,89979.66
2022-12-08T07:07:09.714Z,89986.22
2022-12-08T07:09:37.019Z,89981.81
2022-12-08T07:12:04.557Z,89978.84
2022-12-08T07:14:31.350Z,89985.47
2022-12-08T07:16:58.418Z,89990.41
2022-12-08T07:19:25.209Z,89989.13
2022-12-08T07:21:52.101Z,89997.69
2022-12-08T07:24:18.908Z,89995.84
2022-12-08T07:26:45.794Z,90002.16
2022-12-08T07:29:12.749Z,90001.09
2022-12-08T07:31:39.528Z,89997.53
2022-12-08T07:34:06.544Z,89994.69
2022-12-08T07:36:33.758Z,89997.19
2022-12-08T07:39:00.725Z,90001.22
2022-12-08T07:41:27.546Z,89994.44
2022-12-08T07:43:55.615Z,89992.72
2022-12-08T07:46:24.087Z,90000.13
2022-12-08T07:48:52.245Z,89992.91
2022-12-08T07:51:19.491Z,89994.75
2022-12-08T07:53:53.767Z,90005.13
2022-12-08T07:56:22.640Z,90006.50
2022-12-08T07:58:49.584Z,89992.44
2022-12-08T08:01:25.843Z,89990.47
2022-12-08T08:03:53.725Z,89993.81
2022-12-08T08:06:20.609Z,90002.63
2022-12-08T08:08:47.654Z,90008.22
2022-12-08T08:11:20.778Z,90011.44
2022-12-08T08:13:48.628Z,90005.88
2022-12-08T08:16:15.683Z,90006.41
2022-12-08T08:18:42.756Z,90003.56
2022-12-08T08:21:43.165Z,90008.13
2022-12-08T08:23:56.807Z,89995.34
2022-12-08T08:26:23.745Z,90001.25
2022-12-08T08:28:50.579Z,89997.25
2022-12-08T08:31:17.629Z,89994.75
2022-12-08T08:33:44.555Z,89993.59
2022-12-08T08:36:11.527Z,89997.66
2022-12-08T08:38:38.542Z,89997.44
2022-12-08T08:41:09.619Z,89993.41
2022-12-08T08:43:38.569Z,89991.09
2022-12-08T08:46:07.211Z,89987.94
2022-12-08T08:48:34.180Z,89994.03
2022-12-08T08:51:08.675Z,89988.88
2022-12-08T08:53:36.094Z,89989.94
2022-12-08T08:56:03.214Z,89987.59
2022-12-08T08:58:30.045Z,89985.38
2022-12-08T09:00:56.909Z,89976.06
2022-12-08T09:03:23.686Z,89971.97
2022-12-08T09:05:50.800Z,89974.63
2022-12-08T09:08:17.863Z,89979.19
2022-12-08T09:10:44.863Z,89979.34
2022-12-08T09:13:11.652Z,89968.88
2022-12-08T09:15:38.729Z,89966.66
2022-12-08T09:18:05.980Z,89974.50
2022-12-08T09:20:34.463Z,89972.72
2022-12-08T09:23:01.946Z,89966.66
2022-12-08T09:25:29.602Z,89962.22
2022-12-08T09:27:56.424Z,89951.13
2022-12-08T09:30:23.490Z,89952.88
2022-12-08T09:32:50.359Z,89947.56
2022-12-08T09:35:17.258Z,89947.25
2022-12-08T09:37:44.209Z,89946.84
2022-12-08T09:40:17.586Z,89947.41
2022-12-08T09:42:52.446Z,89941.31
2022-12-08T09:45:20.274Z,89938.03
2022-12-08T09:47:59.602Z,89936.53
2022-12-08T09:50:35.576Z,89939.44
2022-12-08T09:53:11.650Z,89923.59
2022-12-08T09:55:59.475Z,89931.00
2022-12-08T09:58:38.304Z,89931.53
2022-12-08T10:01:05.193Z,89928.28
2022-12-08T10:03:32.121Z,89927.91
2022-12-08T10:06:19.597Z,89921.03
2022-12-08T10:09:11.126Z,89928.31
2022-12-08T10:11:49.869Z,89922.91
2022-12-08T10:14:38.875Z,89920.00
2022-12-08T10:17:36.397Z,89931.53
2022-12-08T10:20:11.093Z,89928.75
2022-12-08T10:22:44.351Z,89925.22
2022-12-08T10:25:14.620Z,89932.41
2022-12-08T10:27:41.545Z,89915.75
2022-12-08T10:30:17.907Z,89910.09
2022-12-08T10:32:48.321Z,89908.97
2022-12-08T10:35:17.346Z,89921.59
2022-12-08T10:38:00.796Z,89914.94
2022-12-08T10:40:36.104Z,89915.00
2022-12-08T10:43:06.183Z,89912.81
2022-12-08T10:45:38.673Z,89905.03
2022-12-08T10:48:30.455Z,89904.97
2022-12-08T10:50:59.353Z,89910.16
2022-12-08T10:53:28.747Z,89901.31
2022-12-08T10:56:04.488Z,89899.13
2022-12-08T10:58:37.062Z,89897.13
2022-12-08T11:01:11.400Z,89894.31
2022-12-08T11:04:02.323Z,89898.50
2022-12-08T11:06:29.192Z,89893.06
2022-12-08T11:08:58.696Z,89885.97
2022-12-08T11:11:47.478Z,89888.56
2022-12-08T11:14:46.332Z,89895.72
2022-12-08T11:17:21.826Z,89894.31
2022-12-08T11:20:04.928Z,89899.44
2022-12-08T11:22:37.634Z,89888.13
2022-12-08T11:25:21.146Z,89892.28
2022-12-08T11:27:50.331Z,89895.91
2022-12-08T11:30:20.208Z,89893.16
2022-12-08T11:32:50.155Z,89898.03
2022-12-08T11:35:38.925Z,89886.66
2022-12-08T11:38:30.920Z,89892.53
2022-12-08T11:41:21.424Z,89886.25
2022-12-08T11:44:12.978Z,89885.78
2022-12-08T11:47:14.873Z,89882.13
2022-12-08T11:49:43.184Z,89884.88
2022-12-08T11:52:32.700Z,89887.00
2022-12-08T11:55:21.085Z,89886.06
2022-12-08T11:57:49.146Z,89887.72
2022-12-08T12:00:17.800Z,89893.16
2022-12-08T12:02:53.497Z,89882.44
2022-12-08T12:08:54.326Z,89886.16
2022-12-08T12:11:32.509Z,89889.97
2022-12-08T12:14:38.166Z,89893.22
2022-12-08T12:17:08.352Z,89879.97
2022-12-08T12:19:39.845Z,89882.06
2022-12-08T12:22:17.032Z,89893.44
2022-12-08T12:24:48.295Z,89889.47
2022-12-08T12:27:15.198Z,89883.50
2022-12-08T12:29:56.419Z,89890.13
2022-12-08T12:32:24.632Z,89892.78
2022-12-08T12:34:55.410Z,89891.66
2022-12-08T12:37:36.146Z,89888.72
2022-12-08T12:40:06.087Z,89886.47
2022-12-08T12:42:46.192Z,89900.97
2022-12-08T12:45:16.293Z,89891.56
2022-12-08T12:47:58.340Z,89889.97
2022-12-08T12:50:34.263Z,89897.97
2022-12-08T12:53:03.346Z,89886.88
2022-12-08T12:55:57.202Z,89891.50
2022-12-08T12:58:30.722Z,89891.44
2022-12-08T13:01:12.349Z,89885.69
2022-12-08T13:03:44.289Z,89900.66
2022-12-08T13:06:14.793Z,89898.44
2022-12-08T13:08:51.296Z,89901.97
2022-12-08T13:11:18.532Z,89897.69
2022-12-08T13:14:04.394Z,89899.50
2022-12-08T13:16:38.190Z,89910.28
2022-12-08T13:19:14.040Z,89903.34
2022-12-08T13:21:41.291Z,89904.41
2022-12-08T13:24:10.864Z,89902.94
2022-12-08T13:26:48.926Z,89895.81
2022-12-08T13:29:26.352Z,89909.84
2022-12-08T13:32:00.402Z,89907.97
2022-12-08T13:34:36.434Z,89908.84
2022-12-08T13:37:12.581Z,89912.56
2022-12-08T13:39:39.371Z,89912.66
2022-12-08T13:42:12.592Z,89910.28
2022-12-08T13:57:08.607Z,89916.22
2022-12-08T13:59:44.559Z,89917.09
2022-12-08T14:02:45.298Z,89917.22
2022-12-08T14:05:18.551Z,89923.28
2022-12-08T14:08:02.717Z,89920.22
2022-12-08T14:10:31.735Z,89921.59
2022-12-08T14:13:03.807Z,89923.69
2022-12-08T14:15:37.901Z,89930.41
2022-12-08T14:18:06.887Z,89923.63
2022-12-08T14:20:57.933Z,89932.63
2022-12-08T14:23:22.936Z,89926.59
2022-12-08T14:25:49.960Z,89927.13
2022-12-08T14:28:16.944Z,89936.84
2022-12-08T14:30:44.130Z,89923.41
2022-12-08T14:33:16.533Z,89930.66
2022-12-08T14:35:49.722Z,89929.63
2022-12-08T14:38:19.111Z,89927.72
2022-12-08T14:41:02.278Z,89935.41
2022-12-08T14:43:30.950Z,89935.16
2022-12-08T14:46:01.581Z,89936.03
2022-12-08T14:48:31.657Z,89931.31
2022-12-08T14:50:58.551Z,89930.16
2022-12-08T14:53:26.376Z,89940.31
2022-12-08T14:55:53.257Z,89938.97
2022-12-08T14:58:29.305Z,89938.41
2022-12-08T15:01:00.719Z,89931.63
2022-12-08T15:03:31.485Z,89944.28
2022-12-08T15:06:03.280Z,89939.69
2022-12-08T15:08:31.830Z,89932.19
2022-12-08T15:11:30.323Z,89938.09
2022-12-08T15:13:57.153Z,89940.31
2022-12-08T15:16:43.903Z,89934.72
2022-12-08T15:19:18.805Z,89926.75
2022-12-08T15:21:46.690Z,89937.06
2022-12-08T15:24:15.340Z,89935.91
2022-12-08T15:26:46.317Z,89944.72
2022-12-08T15:29:26.863Z,89948.25
2022-12-08T15:31:57.350Z,89950.59
2022-12-08T15:34:24.942Z,89947.78
2022-12-08T15:36:53.812Z,89955.28
2022-12-08T15:39:37.841Z,89953.09
2022-12-08T15:42:10.750Z,89949.25
2022-12-08T15:44:37.578Z,89956.91
2022-12-08T15:47:04.825Z,89959.84
2022-12-08T15:49:31.716Z,89956.75
2022-12-08T15:52:10.586Z,89955.59
2022-12-08T15:54:38.211Z,89956.31
2022-12-08T15:57:22.191Z,89961.63
2022-12-08T15:59:53.631Z,89961.91
2022-12-08T16:02:22.786Z,89963.66
2022-12-08T16:07:37.641Z,89962.44
2022-12-08T16:10:07.474Z,89960.81
2022-12-08T16:13:19.913Z,89962.88
2022-12-08T16:18:26.398Z,89965.06
2022-12-08T16:23:43.470Z,89969.22
2022-12-08T16:26:49.102Z,89968.66
2022-12-08T16:29:10.105Z,89968.06
2022-12-08T16:31:37.214Z,89968.06
2022-12-08T16:34:04.026Z,89968.41
2022-12-08T16:36:31.126Z,89976.34
2022-12-08T16:38:58.288Z,89977.63
2022-12-08T16:41:25.233Z,89970.16
2022-12-08T16:43:52.757Z,89974.56
2022-12-08T16:46:21.447Z,89976.78
2022-12-08T16:48:48.427Z,89978.28
2022-12-08T16:51:22.001Z,89974.88
2022-12-08T16:53:52.442Z,89984.59
2022-12-08T16:56:20.883Z,89993.88
2022-12-08T16:58:48.258Z,89993.97
2022-12-08T17:01:17.523Z,89992.63
2022-12-08T17:04:01.414Z,89995.25
2022-12-08T17:06:33.520Z,89999.22
2022-12-08T17:09:00.931Z,90000.78
2022-12-08T17:11:27.850Z,89991.16
2022-12-08T17:13:54.774Z,90005.28
2022-12-08T17:16:22.054Z,90006.38
2022-12-08T17:18:49.118Z,90005.69
2022-12-08T17:21:17.853Z,89993.03
2022-12-08T17:23:45.553Z,90002.44
2022-12-08T17:26:14.332Z,89999.34
2022-12-08T17:28:59.882Z,89998.94
2022-12-08T17:31:30.187Z,89996.44
2022-12-08T17:34:02.516Z,89998.22
2022-12-08T17:36:29.942Z,90003.63
2022-12-08T17:38:58.616Z,89997.84
2022-12-08T17:41:25.678Z,89999.81
2022-12-08T17:43:52.502Z,90001.31
2022-12-08T17:46:20.470Z,90001.94
2022-12-08T17:48:47.749Z,89990.97
2022-12-08T17:51:15.362Z,89998.09
2022-12-08T17:53:42.688Z,89994.94
2022-12-08T17:56:21.343Z,89997.63
2022-12-08T17:58:54.299Z,90000.13
2022-12-08T18:01:23.139Z,89999.84
2022-12-08T18:03:50.489Z,89999.41
2022-12-08T18:06:17.587Z,90001.03
2022-12-08T18:08:45.213Z,90002.09
2022-12-08T18:11:19.013Z,90003.28
2022-12-08T18:13:48.154Z,90004.81
2022-12-08T18:16:17.270Z,90008.13
2022-12-08T18:18:44.309Z,90007.16
2022-12-08T18:21:12.375Z,89999.50
2022-12-08T18:23:41.446Z,90011.47
2022-12-08T18:26:10.364Z,90003.13
2022-12-08T18:28:37.962Z,90021.13
2022-12-08T18:31:17.187Z,90022.69
2022-12-08T18:33:45.607Z,90014.63
2022-12-08T18:36:24.048Z,90017.78
2022-12-08T18:38:52.195Z,90019.47
2022-12-08T18:41:23.055Z,90012.75
2022-12-08T18:43:50.188Z,90014.22
2022-12-08T18:46:17.317Z,90013.72
2022-12-08T18:48:47.070Z,90013.94
2022-12-08T18:51:16.822Z,90011.00
2022-12-08T18:53:44.614Z,90016.19
2022-12-08T18:56:41.013Z,90010.91
2022-12-08T18:59:11.487Z,90017.66
2022-12-08T19:01:39.953Z,90027.28
2022-12-08T19:06:57.788Z,90023.31
2022-12-08T19:09:25.098Z,90023.75
2022-12-08T19:11:55.650Z,90017.44
2022-12-08T19:14:28.596Z,90014.22
2022-12-08T19:16:56.399Z,90021.53
2022-12-08T19:19:24.201Z,90018.31
2022-12-08T19:21:51.331Z,90026.41
2022-12-08T19:24:18.417Z,90024.19
2022-12-08T19:26:45.908Z,90021.97
2022-12-08T19:29:13.224Z,90020.75
2022-12-08T19:31:40.884Z,90025.13
2022-12-08T19:34:08.818Z,90025.81
2022-12-08T19:36:38.726Z,90027.16
2022-12-08T19:39:05.762Z,90034.03
2022-12-08T19:41:33.244Z,90030.28
2022-12-08T19:44:00.236Z,90034.06
2022-12-08T19:46:27.297Z,90031.63
2022-12-08T19:48:54.306Z,90026.94
2022-12-08T19:51:21.262Z,90035.50
2022-12-08T19:53:48.251Z,90036.78
2022-12-08T19:56:15.099Z,90040.59
2022-12-08T19:58:42.046Z,90040.16
2022-12-08T20:01:09.157Z,90040.38
2022-12-08T20:03:36.218Z,90042.25
2022-12-08T20:06:04.567Z,90044.88
2022-12-08T20:08:31.439Z,90039.91
2022-12-08T20:10:58.532Z,90039.63
2022-12-08T20:13:25.479Z,90038.34
2022-12-08T20:15:53.354Z,90036.66
2022-12-08T20:18:21.102Z,90042.25
2022-12-08T20:20:48.317Z,90039.53
2022-12-08T20:23:16.637Z,90038.56
2022-12-08T20:25:45.478Z,90046.25
2022-12-08T20:28:12.635Z,90050.59
2022-12-08T20:30:41.247Z,90047.44
2022-12-08T20:33:08.348Z,90037.91
2022-12-08T20:35:35.211Z,90048.09
2022-12-08T20:38:02.239Z,90051.38
2022-12-08T20:40:29.259Z,90053.03
2022-12-08T20:42:56.454Z,90055.09
2022-12-08T20:45:23.338Z,90052.25
2022-12-08T20:47:50.409Z,90042.50
2022-12-08T20:50:17.485Z,90049.34
2022-12-08T20:52:44.543Z,90042.59
2022-12-08T20:55:11.474Z,90039.09
2022-12-08T20:57:38.685Z,90037.94
2022-12-08T21:00:07.506Z,90044.50
2022-12-08T21:02:34.941Z,90036.91
2022-12-08T21:05:02.082Z,90040.59
2022-12-08T21:07:29.550Z,90049.56
2022-12-08T21:09:56.605Z,90041.66
2022-12-08T21:12:23.675Z,90039.13
2022-12-08T21:14:51.145Z,90038.69
2022-12-08T21:17:18.318Z,90034.78
2022-12-08T21:19:45.630Z,90034.25
2022-12-08T21:22:12.532Z,90038.69
2022-12-08T21:24:39.500Z,90036.25
2022-12-08T21:27:06.440Z,90041.53
2022-12-08T21:29:33.361Z,90044.94
2022-12-08T21:32:00.328Z,90049.03
2022-12-08T21:34:28.161Z,90039.13
2022-12-08T21:36:55.025Z,90046.63
2022-12-08T21:39:22.252Z,90038.47
2022-12-08T21:41:49.331Z,90038.69
2022-12-08T21:44:17.452Z,90041.91
2022-12-08T21:46:44.634Z,90055.63
2022-12-08T21:49:11.697Z,90060.72
2022-12-08T21:51:38.604Z,90056.63
2022-12-08T21:54:05.584Z,90048.81
2022-12-08T21:56:32.969Z,90060.44
2022-12-08T21:58:59.952Z,90048.59
2022-12-08T22:01:27.175Z,90045.88
2022-12-08T22:03:54.407Z,90045.56
2022-12-08T22:06:21.718Z,90045.56
2022-12-08T22:08:48.786Z,90040.06
2022-12-08T22:11:15.855Z,90040.19
2022-12-08T22:13:42.869Z,90031.94
2022-12-08T22:16:12.837Z,90033.00
2022-12-08T22:18:40.100Z,90039.34
2022-12-08T22:21:14.959Z,90043.22
2022-12-08T22:23:42.913Z,90041.63
2022-12-08T22:26:11.108Z,90040.56
2022-12-08T22:28:41.568Z,90036.88
2022-12-08T22:31:17.413Z,90032.34
2022-12-08T22:33:44.782Z,90046.50
2022-12-08T22:36:16.045Z,90035.97
2022-12-08T22:38:43.250Z,90035.44
2022-12-08T22:41:10.154Z,90036.69
2022-12-08T22:43:37.922Z,90034.69
2022-12-08T22:46:15.539Z,90033.41
2022-12-08T22:48:42.776Z,90033.81
2022-12-08T22:51:10.401Z,90037.84
2022-12-08T22:53:37.734Z,90028.97
2022-12-08T22:56:05.902Z,90029.59
2022-12-08T22:58:32.906Z,90031.72
2022-12-08T23:00:59.884Z,90029.28
2022-12-08T23:03:27.272Z,90032.59
2022-12-08T23:05:54.719Z,90028.50
2022-12-08T23:08:21.792Z,90026.50
2022-12-08T23:10:51.120Z,90033.50
2022-12-08T23:13:18.614Z,90036.16
2022-12-08T23:15:45.981Z,90029.50
2022-12-08T23:18:18.074Z,90021.22
2022-12-08T23:20:45.944Z,90022.16
2022-12-08T23:23:13.713Z,90026.06
2022-12-08T23:25:43.927Z,90034.03
2022-12-08T23:28:12.911Z,90040.16
2022-12-08T23:30:40.783Z,90039.78
2022-12-08T23:33:07.909Z,90041.72
2022-12-08T23:35:35.349Z,90044.03
2022-12-08T23:38:02.504Z,90039.41
2022-12-08T23:40:29.567Z,90039.56
2022-12-08T23:42:56.581Z,90042.19
2022-12-08T23:45:23.706Z,90033.75
2022-12-08T23:47:50.747Z,90034.09
2022-12-08T23:50:17.830Z,90043.34
2022-12-08T23:52:45.566Z,90040.84
2022-12-08T23:55:12.635Z,90046.03
2022-12-08T23:57:39.644Z,90036.56
